createdAt,value
2019-03-19T00:00:40.912Z,2.85
2019-03-19T00:03:11.581Z,2.77
2019-03-19T00:05:42.238Z,2.77
2019-03-19T00:08:12.725Z,2.64
2019-03-19T00:10:43.199Z,2.67
2019-03-19T00:13:15.184Z,2.60
2019-03-19T00:15:53.832Z,2.53
2019-03-19T00:18:25.914Z,2.62
2019-03-19T00:20:56.395Z,2.54
2019-03-19T00:23:26.916Z,2.56
2019-03-19T00:25:57.399Z,2.50
2019-03-19T00:28:27.935Z,2.49
2019-03-19T00:30:58.370Z,2.41
2019-03-19T00:33:28.827Z,2.34
2019-03-19T00:35:59.329Z,2.20
2019-03-19T00:38:29.792Z,2.24
2019-03-19T00:41:00.683Z,2.27
2019-03-19T00:43:31.315Z,2.32
2019-03-19T00:46:01.889Z,2.30
2019-03-19T00:48:32.477Z,2.14
2019-03-19T00:51:03.048Z,2.18
2019-03-19T00:53:33.566Z,2.22
2019-03-19T00:56:04.166Z,2.16
2019-03-19T00:58:38.623Z,2.18
2019-03-19T01:01:09.153Z,2.07
2019-03-19T01:03:40.574Z,2.23
2019-03-19T01:06:11.067Z,2.14
2019-03-19T01:08:41.538Z,2.30
2019-03-19T01:11:11.999Z,2.33
2019-03-19T01:13:42.453Z,2.29
2019-03-19T01:16:14.889Z,2.39
2019-03-19T01:18:45.398Z,2.43
2019-03-19T01:21:15.843Z,2.31
2019-03-19T01:23:46.317Z,2.27
2019-03-19T01:26:16.782Z,2.34
2019-03-19T01:28:47.305Z,2.25
2019-03-19T01:31:17.779Z,2.17
2019-03-19T01:33:48.258Z,2.19
2019-03-19T01:36:18.709Z,2.10
2019-03-19T01:38:49.174Z,2.03
2019-03-19T01:41:19.613Z,2.01
2019-03-19T01:43:50.071Z,2.10
2019-03-19T01:46:20.570Z,2.04
2019-03-19T01:48:55.093Z,2.20
2019-03-19T01:51:25.799Z,2.16
2019-03-19T01:53:56.291Z,2.18
2019-03-19T01:56:26.816Z,2.11
2019-03-19T01:58:57.282Z,2.07
2019-03-19T02:01:27.909Z,2.12
2019-03-19T02:03:58.360Z,2.06
2019-03-19T02:06:28.812Z,1.94
2019-03-19T02:08:59.342Z,1.82
2019-03-19T02:11:29.815Z,1.98
2019-03-19T02:14:00.346Z,1.83
2019-03-19T02:16:30.837Z,1.98
2019-03-19T02:19:01.410Z,1.90
2019-03-19T02:21:31.829Z,1.76
2019-03-19T02:24:02.316Z,1.90
2019-03-19T02:26:32.844Z,1.86
2019-03-19T02:29:03.413Z,1.76
2019-03-19T02:34:33.093Z,1.84
2019-03-19T02:37:03.618Z,1.77
2019-03-19T02:39:34.233Z,1.74
2019-03-19T02:42:04.780Z,1.82
2019-03-19T02:44:35.325Z,1.94
2019-03-19T02:47:05.766Z,1.74
2019-03-19T02:49:36.358Z,1.85
2019-03-19T02:52:06.956Z,1.76
2019-03-19T02:54:53.394Z,1.83
2019-03-19T02:57:23.976Z,1.93
2019-03-19T02:59:55.988Z,2.09
2019-03-19T03:02:26.569Z,2.08
2019-03-19T03:04:57.232Z,2.20
2019-03-19T03:07:27.653Z,2.23
2019-03-19T03:09:58.096Z,2.42
2019-03-19T03:12:28.584Z,2.29
2019-03-19T03:14:59.138Z,2.28
2019-03-19T03:17:29.690Z,2.42
2019-03-19T03:20:00.125Z,2.34
2019-03-19T03:22:30.582Z,2.32
2019-03-19T03:25:01.056Z,2.38
2019-03-19T03:27:34.094Z,2.25
2019-03-19T03:30:08.590Z,2.36
2019-03-19T03:32:40.682Z,2.28
2019-03-19T03:35:12.697Z,2.22
2019-03-19T03:37:43.284Z,2.33
2019-03-19T03:43:06.924Z,2.28
2019-03-19T03:45:37.522Z,2.29
2019-03-19T03:48:09.554Z,2.40
2019-03-19T03:50:40.185Z,2.36
2019-03-19T03:53:16.883Z,2.39
2019-03-19T03:55:47.521Z,2.36
2019-03-19T03:58:18.029Z,2.37
2019-03-19T04:00:51.297Z,2.35
2019-03-19T04:06:32.507Z,2.46
2019-03-19T04:09:16.263Z,2.49
2019-03-19T04:11:46.832Z,2.52
2019-03-19T04:14:17.322Z,2.50
2019-03-19T04:16:47.817Z,2.46
2019-03-19T04:19:20.386Z,2.54
2019-03-19T04:24:44.677Z,2.65
2019-03-19T04:27:16.650Z,2.71
2019-03-19T04:29:47.645Z,2.79
2019-03-19T04:32:34.089Z,2.83
2019-03-19T04:35:10.246Z,2.93
2019-03-19T04:38:01.192Z,3.01
2019-03-19T04:40:31.387Z,3.12
2019-03-19T04:43:03.558Z,3.20
2019-03-19T04:45:37.199Z,3.30
2019-03-19T04:48:07.771Z,3.31
2019-03-19T04:50:38.331Z,3.28
2019-03-19T04:53:10.341Z,3.38
2019-03-19T04:55:40.795Z,3.48
2019-03-19T04:58:13.026Z,3.57
2019-03-19T05:00:45.122Z,3.73
2019-03-19T05:03:17.146Z,3.90
2019-03-19T05:05:47.566Z,3.94
2019-03-19T05:08:23.277Z,4.17
2019-03-19T05:10:55.307Z,4.37
2019-03-19T05:13:25.782Z,4.68
2019-03-19T05:16:00.521Z,4.65
2019-03-19T05:21:23.500Z,4.67
2019-03-19T05:23:53.952Z,4.31
2019-03-19T05:26:26.073Z,4.05
2019-03-19T05:28:58.164Z,4.28
2019-03-19T05:31:28.732Z,4.40
2019-03-19T05:34:03.733Z,4.89
2019-03-19T05:36:34.302Z,4.72
2019-03-19T05:39:09.847Z,4.77
2019-03-19T05:41:42.610Z,4.86
2019-03-19T05:44:16.481Z,4.70
2019-03-19T05:46:51.299Z,4.66
2019-03-19T05:49:29.151Z,4.84
2019-03-19T05:51:59.632Z,5.06
2019-03-19T05:54:32.756Z,5.14
2019-03-19T05:57:06.176Z,5.19
2019-03-19T05:59:41.074Z,5.21
2019-03-19T06:02:11.595Z,5.48
2019-03-19T06:04:43.751Z,5.60
2019-03-19T06:07:15.906Z,5.68
2019-03-19T06:09:49.047Z,5.78
2019-03-19T06:12:21.315Z,5.97
2019-03-19T06:14:52.006Z,6.09
2019-03-19T06:17:23.662Z,6.26
2019-03-19T06:19:56.565Z,6.44
2019-03-19T06:22:28.694Z,6.30
2019-03-19T06:25:04.212Z,6.41
2019-03-19T06:27:34.834Z,6.45
2019-03-19T06:33:12.009Z,6.51
2019-03-19T06:35:44.031Z,6.74
2019-03-19T06:38:17.391Z,6.83
2019-03-19T06:40:48.962Z,7.06
2019-03-19T06:43:23.005Z,6.92
2019-03-19T06:46:08.618Z,6.87
2019-03-19T06:48:41.930Z,7.00
2019-03-19T06:51:20.551Z,7.05
2019-03-19T06:53:51.284Z,6.93
2019-03-19T06:59:15.832Z,7.35
2019-03-19T07:01:50.460Z,7.57
2019-03-19T07:04:20.976Z,7.66
2019-03-19T07:06:52.822Z,7.56
2019-03-19T07:09:28.917Z,7.85
2019-03-19T07:12:01.679Z,7.89
2019-03-19T07:14:34.055Z,7.83
2019-03-19T07:17:05.103Z,7.80
2019-03-19T07:19:53.378Z,8.11
2019-03-19T07:22:30.806Z,8.21
2019-03-19T07:25:03.171Z,8.17
2019-03-19T07:27:35.885Z,8.20
2019-03-19T07:30:23.353Z,8.30
2019-03-19T07:32:56.261Z,8.40
2019-03-19T07:35:26.821Z,8.33
2019-03-19T07:37:58.967Z,8.29
2019-03-19T07:40:34.513Z,8.44
2019-03-19T07:43:05.095Z,8.71
2019-03-19T07:45:35.624Z,8.73
2019-03-19T07:48:06.128Z,8.85
2019-03-19T07:50:37.766Z,8.89
2019-03-19T07:53:08.377Z,8.78
2019-03-19T07:55:40.356Z,8.65
2019-03-19T07:58:15.322Z,8.68
2019-03-19T08:00:45.951Z,8.88
2019-03-19T08:03:17.989Z,9.03
2019-03-19T08:05:57.508Z,9.04
2019-03-19T08:08:28.157Z,9.18
2019-03-19T08:10:58.983Z,9.37
2019-03-19T08:13:30.440Z,9.43
2019-03-19T08:16:02.727Z,9.70
2019-03-19T08:18:36.249Z,9.44
2019-03-19T08:21:06.944Z,9.60
2019-03-19T08:23:40.081Z,9.44
2019-03-19T08:26:13.790Z,9.62
2019-03-19T08:28:55.032Z,9.74
2019-03-19T08:31:18.914Z,9.63
2019-03-19T08:33:49.448Z,9.74
2019-03-19T08:36:19.834Z,9.73
2019-03-19T08:38:50.292Z,9.83
2019-03-19T08:41:37.104Z,9.86
2019-03-19T08:44:07.792Z,10.03
2019-03-19T08:46:38.290Z,9.96
2019-03-19T08:49:08.893Z,9.87
2019-03-19T08:51:39.333Z,9.94
2019-03-19T08:54:11.169Z,9.84
2019-03-19T08:56:44.577Z,10.10
2019-03-19T08:59:17.443Z,10.16
2019-03-19T09:01:48.031Z,10.06
2019-03-19T09:04:18.632Z,10.19
2019-03-19T09:06:49.161Z,10.23
2019-03-19T09:09:21.390Z,10.21
2019-03-19T09:11:53.472Z,10.07
2019-03-19T09:14:28.561Z,10.09
2019-03-19T09:17:02.949Z,10.35
2019-03-19T09:19:34.361Z,10.45
2019-03-19T09:22:06.487Z,10.56
2019-03-19T09:24:45.310Z,10.71
2019-03-19T09:27:16.012Z,10.57
2019-03-19T09:29:48.303Z,10.56
2019-03-19T09:32:20.335Z,10.59
2019-03-19T09:34:52.214Z,10.56
2019-03-19T09:37:22.868Z,10.76
2019-03-19T09:39:53.297Z,10.62
2019-03-19T09:42:23.983Z,10.62
2019-03-19T09:44:58.479Z,10.79
2019-03-19T09:47:26.891Z,10.94
2019-03-19T09:49:58.836Z,11.08
2019-03-19T09:52:32.425Z,10.94
2019-03-19T09:55:05.856Z,10.86
2019-03-19T09:57:36.396Z,10.95
2019-03-19T10:00:18.500Z,11.07
2019-03-19T10:02:49.961Z,11.09
2019-03-19T10:05:22.160Z,11.12
2019-03-19T10:07:52.787Z,11.09
2019-03-19T10:10:27.145Z,11.36
2019-03-19T10:12:59.393Z,11.26
2019-03-19T10:15:30.691Z,11.34
2019-03-19T10:21:02.291Z,11.31
2019-03-19T10:23:34.162Z,11.37
2019-03-19T10:26:06.839Z,11.35
2019-03-19T10:28:42.676Z,11.22
2019-03-19T10:31:19.274Z,11.22
2019-03-19T10:33:47.103Z,11.27
2019-03-19T10:36:26.730Z,11.46
2019-03-19T10:38:57.363Z,11.56
2019-03-19T10:41:29.896Z,11.57
2019-03-19T10:44:01.792Z,11.62
2019-03-19T10:46:33.292Z,11.69
2019-03-19T10:49:04.166Z,11.61
2019-03-19T10:51:35.269Z,11.65
2019-03-19T10:54:08.935Z,11.61
2019-03-19T10:56:40.193Z,11.66
2019-03-19T10:59:12.139Z,11.57
2019-03-19T11:01:45.376Z,11.57
2019-03-19T11:04:16.691Z,11.80
2019-03-19T11:06:48.760Z,11.99
2019-03-19T11:09:19.467Z,12.07
2019-03-19T11:11:50.324Z,12.10
2019-03-19T11:14:24.788Z,11.86
2019-03-19T11:16:56.959Z,11.87
2019-03-19T11:19:29.189Z,11.72
2019-03-19T11:22:01.567Z,11.54
2019-03-19T11:24:32.287Z,11.59
2019-03-19T11:27:14.166Z,11.87
2019-03-19T11:29:46.149Z,11.82
2019-03-19T11:32:18.219Z,11.88
2019-03-19T11:34:51.743Z,11.85
2019-03-19T11:37:26.818Z,11.94
2019-03-19T11:39:59.061Z,11.81
2019-03-19T11:42:31.493Z,11.93
2019-03-19T11:45:02.198Z,11.91
2019-03-19T11:47:32.825Z,11.98
2019-03-19T11:50:11.343Z,11.99
2019-03-19T11:52:43.545Z,12.19
2019-03-19T11:55:15.125Z,12.17
2019-03-19T11:57:46.314Z,12.17
2019-03-19T12:00:21.275Z,12.13
2019-03-19T12:03:10.867Z,12.18
2019-03-19T12:05:35.506Z,12.34
2019-03-19T12:08:08.352Z,12.29
2019-03-19T12:10:38.979Z,12.30
2019-03-19T12:13:14.710Z,12.06
2019-03-19T12:15:45.359Z,11.93
2019-03-19T12:18:16.184Z,11.97
2019-03-19T12:20:51.044Z,12.05
2019-03-19T12:23:36.185Z,12.27
2019-03-19T12:29:23.122Z,12.43
2019-03-19T12:32:05.487Z,12.29
2019-03-19T12:38:05.830Z,12.37
2019-03-19T12:40:37.602Z,12.36
2019-03-19T12:43:08.211Z,12.51
2019-03-19T12:45:38.712Z,12.39
2019-03-19T12:48:09.223Z,12.41
2019-03-19T12:53:33.370Z,12.30
2019-03-19T12:56:03.822Z,12.29
2019-03-19T12:58:34.242Z,12.32
2019-03-19T13:01:04.894Z,12.46
2019-03-19T13:03:37.329Z,12.43
2019-03-19T13:06:07.957Z,12.29
2019-03-19T13:08:41.514Z,12.22
2019-03-19T13:11:12.150Z,12.25
2019-03-19T13:13:42.780Z,12.32
2019-03-19T13:16:14.962Z,12.35
2019-03-19T13:18:45.709Z,12.52
2019-03-19T13:21:24.036Z,12.34
2019-03-19T13:23:59.396Z,12.28
2019-03-19T13:26:29.967Z,12.25
2019-03-19T13:29:00.521Z,12.26
2019-03-19T13:31:33.919Z,12.20
2019-03-19T13:34:04.448Z,12.06
2019-03-19T13:36:34.962Z,12.06
2019-03-19T13:39:07.278Z,12.22
2019-03-19T13:41:37.805Z,12.25
2019-03-19T13:44:08.323Z,12.27
2019-03-19T13:46:41.889Z,12.13
2019-03-19T13:49:15.360Z,12.17
2019-03-19T13:52:04.053Z,12.07
2019-03-19T13:54:34.769Z,12.10
2019-03-19T13:57:05.215Z,11.94
2019-03-19T13:59:36.223Z,11.89
2019-03-19T14:02:06.913Z,11.85
2019-03-19T14:04:38.946Z,11.99
2019-03-19T14:07:19.712Z,12.07
2019-03-19T14:15:27.949Z,11.84
2019-03-19T14:18:01.595Z,11.80
2019-03-19T14:20:33.455Z,11.74
2019-03-19T14:23:04.856Z,11.59
2019-03-19T14:25:35.448Z,11.67
2019-03-19T14:28:05.951Z,11.51
2019-03-19T14:30:36.378Z,11.49
2019-03-19T14:33:16.571Z,11.40
2019-03-19T14:35:47.064Z,11.43
2019-03-19T14:38:35.387Z,11.46
2019-03-19T14:41:13.515Z,11.44
2019-03-19T14:43:49.404Z,11.44
2019-03-19T14:46:20.160Z,11.48
2019-03-19T14:48:50.889Z,11.33
2019-03-19T14:51:22.666Z,11.40
2019-03-19T14:53:53.205Z,11.21
2019-03-19T14:56:24.096Z,11.14
2019-03-19T14:58:57.243Z,11.21
2019-03-19T15:01:27.961Z,11.00
2019-03-19T15:07:22.498Z,10.96
2019-03-19T15:09:54.132Z,10.81
2019-03-19T15:12:25.649Z,10.85
2019-03-19T15:14:58.065Z,10.64
2019-03-19T15:17:28.662Z,10.60
2019-03-19T15:20:05.935Z,10.62
2019-03-19T15:26:13.500Z,10.38
2019-03-19T15:29:02.162Z,10.46
2019-03-19T15:31:32.545Z,10.32
2019-03-19T15:34:12.706Z,10.28
2019-03-19T15:36:43.625Z,10.22
2019-03-19T15:39:14.372Z,10.15
2019-03-19T15:41:44.974Z,10.06
2019-03-19T15:44:19.739Z,9.92
2019-03-19T15:46:51.915Z,9.75
2019-03-19T15:49:38.462Z,9.72
2019-03-19T15:52:02.552Z,9.62
2019-03-19T15:54:33.011Z,9.53
2019-03-19T15:57:03.454Z,9.55
2019-03-19T15:59:35.910Z,9.46
2019-03-19T16:02:07.950Z,9.36
2019-03-19T16:04:44.143Z,9.31
2019-03-19T16:07:14.710Z,9.34
2019-03-19T16:09:46.752Z,9.33
2019-03-19T16:12:17.318Z,9.29
2019-03-19T16:14:57.294Z,9.24
2019-03-19T16:17:30.264Z,9.19
2019-03-19T16:20:00.884Z,9.15
2019-03-19T16:22:37.079Z,8.99
2019-03-19T16:25:10.129Z,9.01
2019-03-19T16:27:40.615Z,8.89
2019-03-19T16:33:08.236Z,9.05
2019-03-19T16:38:43.676Z,8.85
2019-03-19T16:41:14.287Z,8.86
2019-03-19T16:44:01.395Z,8.71
2019-03-19T16:49:28.577Z,8.72
2019-03-19T16:49:58.028Z,8.73
2019-03-19T16:52:57.146Z,8.68
2019-03-19T16:58:43.639Z,8.78
2019-03-19T17:04:12.493Z,8.57
2019-03-19T17:06:46.311Z,8.52
2019-03-19T17:09:19.805Z,8.59
2019-03-19T17:12:10.470Z,8.60
2019-03-19T17:14:53.106Z,8.44
2019-03-19T17:17:23.081Z,8.39
2019-03-19T17:19:58.612Z,8.35
2019-03-19T17:23:04.300Z,8.50
2019-03-19T17:25:36.188Z,8.58
2019-03-19T17:28:22.092Z,8.55
2019-03-19T17:30:55.637Z,8.29
2019-03-19T17:33:37.888Z,8.16
2019-03-19T17:36:24.399Z,8.13
2019-03-19T17:38:57.324Z,8.20
2019-03-19T17:41:28.028Z,8.26
2019-03-19T17:46:49.854Z,8.26
2019-03-19T17:49:20.610Z,8.37
2019-03-19T17:51:51.137Z,8.22
2019-03-19T17:54:23.038Z,8.16
2019-03-19T17:56:59.477Z,8.20
2019-03-19T17:59:46.819Z,8.09
2019-03-19T18:02:25.201Z,7.93
2019-03-19T18:05:01.659Z,7.84
2019-03-19T18:07:34.129Z,7.93
2019-03-19T18:10:13.672Z,7.83
2019-03-19T18:12:44.490Z,7.86
2019-03-19T18:15:16.476Z,7.92
2019-03-19T18:17:51.402Z,7.95
2019-03-19T18:20:26.459Z,7.98
2019-03-19T18:23:06.258Z,7.85
2019-03-19T18:25:39.031Z,7.99
2019-03-19T18:28:18.243Z,7.95
2019-03-19T18:30:51.081Z,7.93
2019-03-19T18:33:29.296Z,8.03
2019-03-19T18:35:59.868Z,7.98
2019-03-19T18:38:31.999Z,7.87
2019-03-19T18:41:02.518Z,7.93
2019-03-19T18:43:40.915Z,7.87
2019-03-19T18:46:11.435Z,8.01
2019-03-19T18:48:42.092Z,8.03
2019-03-19T18:51:12.685Z,7.90
2019-03-19T18:53:43.284Z,7.91
2019-03-19T18:56:13.776Z,7.77
2019-03-19T18:58:52.629Z,7.86
2019-03-19T19:01:24.087Z,7.81
2019-03-19T19:03:54.587Z,7.85
2019-03-19T19:06:25.216Z,7.88
2019-03-19T19:08:59.592Z,7.85
2019-03-19T19:11:32.718Z,7.65
2019-03-19T19:14:03.358Z,7.60
2019-03-19T19:16:33.799Z,7.69
2019-03-19T19:19:04.517Z,7.54
2019-03-19T19:21:35.143Z,7.49
2019-03-19T19:24:08.856Z,7.42
2019-03-19T19:26:39.384Z,7.33
2019-03-19T19:29:09.978Z,7.35
2019-03-19T19:31:42.491Z,7.25
2019-03-19T19:34:12.683Z,7.25
2019-03-19T19:36:45.163Z,7.20
2019-03-19T19:39:17.470Z,7.07
2019-03-19T19:41:47.971Z,7.15
2019-03-19T19:44:18.523Z,7.13
2019-03-19T19:46:49.037Z,7.16
2019-03-19T19:49:21.528Z,7.09
2019-03-19T19:52:00.530Z,7.14
2019-03-19T19:54:31.106Z,7.14
2019-03-19T19:57:01.636Z,7.13
2019-03-19T19:59:33.141Z,7.08
2019-03-19T20:02:03.622Z,7.13
2019-03-19T20:04:42.189Z,7.11
2019-03-19T20:07:14.234Z,7.12
2019-03-19T20:09:44.674Z,7.07
2019-03-19T20:12:15.174Z,6.99
2019-03-19T20:14:45.634Z,7.07
2019-03-19T20:17:16.034Z,7.00
2019-03-19T20:19:46.446Z,6.97
2019-03-19T20:22:17.040Z,6.92
2019-03-19T20:24:47.408Z,6.82
2019-03-19T20:27:17.900Z,6.77
2019-03-19T20:29:48.368Z,6.73
2019-03-19T20:32:18.827Z,6.61
2019-03-19T20:34:49.249Z,6.70
2019-03-19T20:37:19.706Z,6.72
2019-03-19T20:39:50.281Z,6.75
2019-03-19T20:42:20.720Z,6.60
2019-03-19T20:44:51.157Z,6.80
2019-03-19T20:47:21.556Z,6.98
2019-03-19T20:49:52.142Z,6.94
2019-03-19T20:52:22.671Z,6.84
2019-03-19T20:54:53.103Z,6.83
2019-03-19T20:57:26.784Z,6.70
2019-03-19T20:59:57.210Z,6.59
2019-03-19T21:02:27.621Z,6.56
2019-03-19T21:04:58.139Z,6.58
2019-03-19T21:07:28.586Z,6.67
2019-03-19T21:09:59.065Z,6.52
2019-03-19T21:12:29.832Z,6.45
2019-03-19T21:15:00.449Z,6.60
2019-03-19T21:17:30.944Z,6.43
2019-03-19T21:20:01.461Z,6.35
2019-03-19T21:22:31.957Z,6.34
2019-03-19T21:25:02.424Z,6.33
2019-03-19T21:27:32.895Z,6.23
2019-03-19T21:30:03.567Z,6.20
2019-03-19T21:32:34.062Z,6.20
2019-03-19T21:35:05.839Z,6.11
2019-03-19T21:37:36.603Z,6.06
2019-03-19T21:40:14.358Z,6.03
2019-03-19T21:42:44.958Z,6.00
2019-03-19T21:45:23.154Z,5.87
2019-03-19T21:47:53.604Z,5.86
2019-03-19T21:50:24.739Z,5.80
2019-03-19T21:52:55.134Z,5.76
2019-03-19T21:55:25.559Z,5.80
2019-03-19T21:57:55.952Z,5.76
2019-03-19T22:00:29.059Z,6.03
2019-03-19T22:02:59.469Z,5.78
2019-03-19T22:05:29.944Z,5.86
2019-03-19T22:08:00.361Z,6.01
2019-03-19T22:10:30.849Z,5.84
2019-03-19T22:13:01.290Z,5.79
2019-03-19T22:15:31.700Z,5.83
2019-03-19T22:18:03.639Z,5.69
2019-03-19T22:20:34.116Z,5.66
2019-03-19T22:23:05.538Z,5.53
2019-03-19T22:25:35.941Z,5.63
2019-03-19T22:28:06.343Z,5.70
2019-03-19T22:30:37.334Z,5.84
2019-03-19T22:33:07.767Z,5.84
2019-03-19T22:35:38.158Z,5.83
2019-03-19T22:38:08.998Z,5.67
2019-03-19T22:40:39.467Z,5.73
2019-03-19T22:43:09.916Z,5.56
2019-03-19T22:45:40.350Z,5.54
2019-03-19T22:48:10.710Z,5.86
2019-03-19T22:50:41.198Z,5.71
2019-03-19T22:53:11.706Z,5.60
2019-03-19T22:55:42.147Z,5.39
2019-03-19T22:58:12.551Z,5.40
2019-03-19T23:00:44.770Z,5.35
2019-03-19T23:03:15.341Z,5.15
2019-03-19T23:05:45.843Z,5.05
2019-03-19T23:08:16.291Z,4.99
2019-03-19T23:10:47.250Z,4.91
2019-03-19T23:13:19.192Z,4.80
2019-03-19T23:15:49.635Z,5.02
2019-03-19T23:18:20.116Z,5.23
2019-03-19T23:20:50.559Z,5.09
2019-03-19T23:23:20.993Z,4.99
2019-03-19T23:25:51.417Z,4.94
2019-03-19T23:28:24.231Z,4.90
2019-03-19T23:30:56.186Z,4.73
2019-03-19T23:33:26.582Z,4.64
2019-03-19T23:35:57.063Z,4.63
2019-03-19T23:38:28.283Z,4.92
2019-03-19T23:40:58.758Z,4.70
2019-03-19T23:43:29.160Z,4.66
2019-03-19T23:45:59.553Z,4.69
2019-03-19T23:48:32.202Z,4.56
2019-03-19T23:51:02.643Z,4.63
2019-03-19T23:53:33.071Z,4.68
2019-03-19T23:56:03.498Z,4.63
2019-03-19T23:58:33.948Z,4.82
